Flight Track Log - Related Links

Times and Time Zones

All times are in EDT time to prevent confusion due to time zone crossing. See the ASQ6115 flight status page for this flight to view local times or setup timezone preferences in your user account.

Time Position Orientation Groundspeed Altitude Reporting Facility
EDT Latitude Longitude Course Direction KTS MPH feet Rate Location/Type
Sat 02:45:18 PM 41.9667 -87.8500 90° East 191 220 4,000  Level Chicago TRACON
Sat 02:45:53 PM 41.9506 -87.7983 113° Southeast 203 234 5,300 2,474 Climbing Chicago Center
Sat 02:46:55 PM 41.9331 -87.7028 104° East 259 298 8,000 2,758 Climbing Chicago Center
Sat 02:47:57 PM 41.9358 -87.5850 88° East 291 335 11,000 2,226 Climbing Chicago Center
Sat 02:48:00 PM 41.9423 -87.2586 95° East  Level FlightAware Approximate
Sat 02:48:59 PM 41.9389 -87.4642 88° East 321 369 12,600  Level Chicago Center
Sat 02:49:00 PM 41.9333 -87.0983 90° East  Level FlightAware Approximate
Sat 02:50:00 PM 41.9667 -87.7730 90° East  Level FlightAware Approximate
Sat 02:50:01 PM 41.9414 -87.3231 89° East 375 432 14,000  Level Chicago Center
Sat 02:51:03 PM 41.9442 -87.1667 89° East 385 443 16,000 1,790 Climbing Chicago Center
Sat 02:52:05 PM 41.9403 -87.0206 92° East 390 449 17,700 1,403 Climbing Chicago Center
Sat 02:53:07 PM 41.9217 -86.8869 101° East 391 450 18,900 1,645 Climbing Chicago Center
Sat 02:54:09 PM 41.9000 -86.7097 99° East 397 457 21,100 1,839 Climbing Chicago Center
Sat 02:55:11 PM 41.8833 -86.5728 99° East 404 465 22,700 919 Climbing Chicago Center
Sat 02:56:13 PM 41.8642 -86.4175 99° East 422 486 23,000 145 Climbing Chicago Center
Sat 02:57:15 PM 41.8433 -86.2533 100° East 441 507 23,000  Level Chicago Center
Sat 02:58:17 PM 41.7600 -86.0900 124° Southeast 449 517 23,000  Level Chicago Center
Sat 02:59:19 PM 41.6767 -85.9703 133° Southeast 445 512 23,000  Level Chicago Center
Sat 03:00:21 PM 41.5931 -85.8508 133° Southeast 444 511 23,000  Level Chicago Center
Sat 03:01:23 PM 41.5094 -85.7319 133° Southeast 445 512 23,000  Level Chicago Center
Sat 03:02:25 PM 41.4258 -85.6114 133° Southeast 446 513 23,000  Level Chicago Center
Sat 03:03:27 PM 41.3242 -85.4681 133° Southeast 449 517 23,000  Level Chicago Center
Sat 03:04:29 PM 41.2394 -85.3475 133° Southeast 449 517 23,000 -919 Level Chicago Center
Sat 03:05:31 PM 41.1544 -85.2281 133° Southeast 449 517 21,100 -1,839 Descending Chicago Center
Sat 03:06:33 PM 41.0703 -85.1094 133° Southeast 447 514 19,200 -1,694 Descending Chicago Center
Sat 03:07:35 PM 40.9883 -84.9975 134° Southeast 432 497 17,600 -1,951 Descending Chicago Center
Sat 03:08:36 PM 40.8950 -84.8686 134° Southeast 412 474 15,200 -1,268 Descending Chicago Center
Sat 03:09:38 PM 40.8194 -84.7639 134° Southeast 399 459 15,000 -97 Descending Chicago Center
Sat 03:10:40 PM 40.7425 -84.6589 134° Southeast 399 459 15,000 -48 Level Chicago Center
Sat 03:11:42 PM 40.6667 -84.5558 134° Southeast 397 457 14,900 -717 Descending Chicago Center
Sat 03:12:12 PM 40.6278 -84.5011 133° Southeast 382 440 13,900 -1,765 Descending Indianapolis Center
Sat 03:13:07 PM 40.5736 -84.4303 135° Southeast 378 435 12,400 -1,973 Descending Indianapolis Center
Sat 03:13:25 PM 40.5289 -84.4031 155° Southeast 362 417 11,500 -2,032 Descending Indianapolis Center
Sat 03:14:09 PM 40.4625 -84.3683 158° South 367 422 10,300 -1,292 Descending Indianapolis Center
Sat 03:14:30 PM 40.4294 -84.3489 156° South 358 412 10,100 -295 Descending Indianapolis Center
Sat 03:15:10 PM 40.3678 -84.3517 182° South 361 415 10,000 -97 Descending Indianapolis Center
Sat 03:15:32 PM 40.3286 -84.3664 196° South 339 390 10,000 -407 Level Indianapolis Center
Sat 03:16:09 PM 40.2831 -84.3847 197° South 332 382 9,600 -1,200 Descending Indianapolis Center
Sat 03:16:27 PM 40.2561 -84.3944 195° South 279 321 8,900 -1,810 Descending Indianapolis Center
Sat 03:17:12 PM 40.2072 -84.4122 196° South 298 343 7,700 -1,900 Descending Indianapolis Center
Sat 03:17:27 PM 40.1794 -84.4214 194° South 279 321 7,000 -1,770 Descending Indianapolis Center
Sat 03:18:13 PM 40.1322 -84.4406 197° South 290 334 5,900 -1,770 Descending Indianapolis Center
Sat 03:18:28 PM 40.1050 -84.4489 193° South 281 323 5,200 -1,692 Descending Indianapolis Center
Sat 03:19:31 PM 40.0328 -84.4550 184° South 260 299 3,700 -1,111 Descending Indianapolis Center
Sat 03:20:16 PM 39.9889 -84.4519 177° South 262 302 3,200 -627 Descending Indianapolis Center
Sat 03:20:38 PM 39.9486 -84.4533 182° South 258 297 3,000 -98 Descending Indianapolis Center
Sat 03:21:17 PM 39.9172 -84.4431 166° South 262 302 3,100 100 Climbing Indianapolis Center
Sat 03:21:38 PM 39.8853 -84.4172 148° Southeast 256 295 3,100 -100 Level Indianapolis Center
Sat 03:22:17 PM 39.8611 -84.3664 122° Southeast 254 292 3,000 -98 Descending Indianapolis Center
Sat 03:22:39 PM 39.8539 -84.3378 108° East 244 281 3,000 -581 Level Indianapolis Center
Sat 03:23:19 PM 39.8558 -84.2869 87° East 233 268 2,400 -985 Descending Indianapolis Center
Sat 03:23:46 PM 39.8678 -84.2664 53° Northeast 155 178 1,900 -190 Descending Indianapolis Center
Sat 03:24:22 PM 39.8839 -84.2319 59° Northeast 224 258 2,200 500 Climbing Indianapolis Center

Login

Don't have an account? Register now (free) for customized features, flight alerts, and more!